Time;durP1;ratioP1;P1;durP2;ratioP2;P2;SDS_P1;SDS_P2;PMS_P1;PMS_P2;Temp;Humidity;BMP_temperature;BMP_pressure;BME280_temperature;BME280_humidity;BME280_pressure;Samples;Min_cycle;Max_cycle;Signal;HPM_P1;HPM_P2
2021/11/29 00:01:18;;;;;;;10.90;8.20;;;;;;;3.71;68.77;98294.50;6180353;22;97865;-74
2021/11/29 00:03:43;;;;;;;13.10;8.70;;;;;;;3.69;69.03;98298.91;6181151;22;97690;-73
2021/11/29 00:06:09;;;;;;;13.20;8.53;;;;;;;3.72;68.67;98291.00;6156931;22;96502;-74
2021/11/29 00:08:35;;;;;;;13.07;9.00;;;;;;;3.70;68.87;98301.47;6156098;22;97413;-74
2021/11/29 00:11:00;;;;;;;16.40;9.43;;;;;;;3.71;69.06;98310.94;6130766;22;100161;-74
2021/11/29 00:13:26;;;;;;;13.43;9.13;;;;;;;3.71;68.67;98310.94;6183413;22;97569;-74
2021/11/29 00:15:51;;;;;;;17.77;11.10;;;;;;;3.70;68.86;98319.63;6184033;22;97121;-74
2021/11/29 00:18:17;;;;;;;17.83;9.80;;;;;;;3.72;68.96;98320.38;6156908;22;96727;-73
2021/11/29 00:20:44;;;;;;;15.67;10.40;;;;;;;3.70;69.15;98314.44;6181720;22;97696;-74
2021/11/29 00:23:11;;;;;;;13.83;9.30;;;;;;;3.71;68.76;98315.28;6181710;22;100142;-74
2021/11/29 00:25:37;;;;;;;17.73;10.10;;;;;;;3.71;69.13;98323.91;6158541;22;97061;-74
2021/11/29 00:28:03;;;;;;;14.03;9.23;;;;;;;3.72;68.77;98327.34;6155552;22;96970;-73
2021/11/29 00:30:29;;;;;;;17.13;10.27;;;;;;;3.72;68.89;98327.34;6180432;22;97424;-74
2021/11/29 00:32:54;;;;;;;15.93;10.70;;;;;;;3.70;69.08;98327.41;6155190;22;99985;-74
2021/11/29 00:35:20;;;;;;;15.13;11.20;;;;;;;3.73;69.06;98334.25;6182427;22;97101;-74
2021/11/29 00:37:45;;;;;;;13.33;9.50;;;;;;;3.74;68.61;98335.91;6180471;22;96648;-74
2021/11/29 00:40:11;;;;;;;14.40;9.80;;;;;;;3.73;68.72;98327.28;6183318;22;97938;-74
2021/11/29 00:42:38;;;;;;;16.27;11.03;;;;;;;3.69;68.62;98337.84;6181724;22;97050;-73
2021/11/29 00:45:05;;;;;;;14.50;9.70;;;;;;;3.71;69.02;98341.22;6181836;22;96921;-74
2021/11/29 00:47:31;;;;;;;16.47;10.07;;;;;;;3.70;68.76;98349.94;6183541;22;96916;-74
2021/11/29 00:49:57;;;;;;;18.10;10.37;;;;;;;3.67;68.82;98342.25;6180484;22;97654;-74
2021/11/29 00:52:22;;;;;;;15.67;10.40;;;;;;;3.63;69.19;98346.69;6181218;22;100114;-74
2021/11/29 00:54:48;;;;;;;13.77;10.73;;;;;;;3.68;68.96;98343.94;6181799;22;96773;-74
2021/11/29 00:57:13;;;;;;;13.57;9.90;;;;;;;3.68;68.86;98342.19;6156525;22;96695;-74
2021/11/29 00:59:40;;;;;;;14.23;10.17;;;;;;;3.69;68.77;98330.06;6132025;22;99985;-74
2021/11/29 01:02:06;;;;;;;15.87;10.13;;;;;;;3.66;68.82;98324.97;6155249;22;97236;-74
2021/11/29 01:04:31;;;;;;;12.93;10.23;;;;;;;3.69;69.23;98323.09;6182621;22;97183;-74
2021/11/29 01:06:57;;;;;;;16.47;10.70;;;;;;;3.69;69.07;98325.69;6155919;22;96782;-74
2021/11/29 01:09:22;;;;;;;16.13;10.30;;;;;;;3.71;68.97;98323.06;6156720;22;98858;-74
2021/11/29 01:11:48;;;;;;;19.20;11.13;;;;;;;3.71;68.79;98323.06;6180362;22;97126;-74
2021/11/29 01:14:14;;;;;;;13.17;9.23;;;;;;;3.71;68.80;98313.53;6182340;22;96607;-74
2021/11/29 01:16:40;;;;;;;16.97;10.83;;;;;;;3.71;68.82;98315.28;6156838;22;98056;-74
2021/11/29 01:19:05;;;;;;;13.60;9.10;;;;;;;3.72;68.95;98319.56;6156743;22;99947;-74
2021/11/29 01:21:31;;;;;;;14.53;10.33;;;;;;;3.69;68.71;98320.50;6156092;22;97099;-74
2021/11/29 01:23:56;;;;;;;13.43;9.63;;;;;;;3.71;69.00;98313.53;6157230;22;96996;-74
2021/11/29 01:26:22;;;;;;;15.00;9.20;;;;;;;3.71;68.85;98318.72;6182210;22;96710;-74
2021/11/29 01:28:48;;;;;;;16.63;9.83;;;;;;;3.72;69.05;98317.78;6181420;22;97287;-74
2021/11/29 01:31:13;;;;;;;13.53;9.63;;;;;;;3.69;68.91;98323.09;6156639;22;97302;-74
2021/11/29 01:33:39;;;;;;;13.80;9.90;;;;;;;3.67;68.79;98317.16;6182686;22;96991;-74
2021/11/29 01:36:05;;;;;;;15.43;9.40;;;;;;;3.71;68.87;98326.50;6181656;22;96945;-74
2021/11/29 01:38:30;;;;;;;15.10;9.43;;;;;;;3.69;68.75;98330.06;6155004;22;97421;-74
2021/11/29 01:40:56;;;;;;;15.80;9.87;;;;;;;3.70;69.03;98323.97;6180871;22;97563;-74
2021/11/29 01:43:22;;;;;;;14.43;10.43;;;;;;;3.70;68.62;98324.81;6181225;22;96682;-74
2021/11/29 01:45:50;;;;;;;13.50;9.40;;;;;;;3.70;68.78;98327.41;6182464;22;96666;-74
2021/11/29 01:48:16;;;;;;;13.27;9.27;;;;;;;3.67;68.74;98321.50;6180538;22;97579;-74
2021/11/29 01:50:45;;;;;;;15.53;10.17;;;;;;;3.74;68.77;98318.59;6181056;22;96987;-73
2021/11/29 01:53:12;;;;;;;13.30;10.00;;;;;;;3.72;68.91;98322.16;6181804;22;96803;-74
2021/11/29 01:55:39;;;;;;;14.63;10.60;;;;;;;3.73;68.54;98323.84;6156983;22;96707;-74
2021/11/29 01:58:05;;;;;;;13.53;10.40;;;;;;;3.73;68.81;98323.84;6182401;22;97539;-74
2021/11/29 02:00:39;;;;;;;14.57;10.70;;;;;;;3.73;68.84;98316.91;6181141;22;97825;-74
2021/11/29 02:03:04;;;;;;;16.33;10.80;;;;;;;3.76;68.86;98319.38;6155461;22;97024;-74
2021/11/29 02:05:30;;;;;;;14.23;10.30;;;;;;;3.73;68.65;98311.72;6183263;22;96858;-74
2021/11/29 02:07:57;;;;;;;15.17;10.17;;;;;;;3.75;68.63;98312.53;6154879;22;100295;-74
2021/11/29 02:10:25;;;;;;;16.67;10.40;;;;;;;3.80;68.46;98312.31;6180927;22;100143;-74
2021/11/29 02:12:51;;;;;;;19.57;10.93;;;;;;;3.71;68.88;98317.88;6180651;22;97022;-74
2021/11/29 02:15:17;;;;;;;15.77;10.60;;;;;;;3.75;68.75;98309.06;6181883;22;97124;-74
2021/11/29 02:17:44;;;;;;;15.63;11.17;;;;;;;3.73;68.53;98316.06;6180518;22;97335;-74
2021/11/29 02:20:10;;;;;;;16.60;11.33;;;;;;;3.74;68.76;98315.16;6154380;22;100048;-74
2021/11/29 02:22:36;;;;;;;17.73;12.90;;;;;;;3.73;68.56;98324.69;6155733;22;96590;-74
2021/11/29 02:25:03;;;;;;;19.90;13.80;;;;;;;3.72;68.87;98324.75;6155756;22;97720;-74
2021/11/29 02:27:29;;;;;;;17.23;12.93;;;;;;;3.75;68.45;98330.69;6180530;22;97287;-74
2021/11/29 02:29:55;;;;;;;21.63;13.57;;;;;;;3.76;68.63;98334.97;6155177;22;97241;-73
2021/11/29 02:32:21;;;;;;;21.07;14.93;;;;;;;3.75;68.60;98332.41;6156046;22;96560;-74
2021/11/29 02:34:47;;;;;;;21.10;14.30;;;;;;;3.69;68.68;98332.66;6181289;22;97369;-74
2021/11/29 02:37:13;;;;;;;22.73;14.80;;;;;;;3.71;68.66;98336.03;6180962;22;97355;-74
2021/11/29 02:39:41;;;;;;;24.83;14.30;;;;;;;3.71;68.75;98342.06;6180434;22;99978;-74
2021/11/29 02:42:08;;;;;;;23.33;14.37;;;;;;;3.71;68.73;98346.41;6181069;22;97011;-74
2021/11/29 02:44:33;;;;;;;23.47;15.87;;;;;;;3.70;68.60;98342.97;6157755;22;97018;-74
2021/11/29 02:47:00;;;;;;;21.90;15.60;;;;;;;3.74;68.53;98349.75;6156305;22;97232;-74
2021/11/29 02:49:25;;;;;;;23.43;15.40;;;;;;;3.75;68.50;98347.97;6157211;22;100401;-74
2021/11/29 02:51:54;;;;;;;20.83;14.77;;;;;;;3.73;68.60;98355.00;6181083;22;96488;-74
2021/11/29 02:54:34;;;;;;;22.47;14.97;;;;;;;3.71;68.70;98352.44;6157330;22;96802;-74
2021/11/29 02:57:04;;;;;;;23.37;15.43;;;;;;;3.72;68.53;98364.50;6181587;22;98019;-74
2021/11/29 02:59:32;;;;;;;20.83;14.87;;;;;;;3.71;68.54;98362.00;6157364;22;100010;-74
2021/11/29 03:02:01;;;;;;;23.33;14.50;;;;;;;3.69;68.45;98362.03;6181780;22;96710;-74
2021/11/29 03:04:29;;;;;;;24.77;16.97;;;;;;;3.71;68.67;98359.41;6182624;22;96993;-74
2021/11/29 03:06:56;;;;;;;19.43;14.23;;;;;;;3.75;68.71;98358.34;6181339;22;97844;-74
2021/11/29 03:09:21;;;;;;;23.63;14.60;;;;;;;3.72;68.32;98359.31;6182730;22;97649;-74
2021/11/29 03:11:48;;;;;;;20.20;13.77;;;;;;;3.69;68.28;98356.00;6181987;22;96552;-73
2021/11/29 03:14:14;;;;;;;23.40;14.63;;;;;;;3.69;68.36;98356.84;6157709;22;96901;-74
2021/11/29 03:16:40;;;;;;;21.70;14.13;;;;;;;3.71;68.37;98360.22;6153629;22;100621;-73
2021/11/29 03:19:06;;;;;;;21.07;14.73;;;;;;;3.72;68.47;98361.91;6156813;22;96460;-73
2021/11/29 03:21:33;;;;;;;20.03;14.57;;;;;;;3.71;68.25;98362.00;6181685;22;96559;-74
2021/11/29 03:24:02;;;;;;;18.77;13.40;;;;;;;3.74;68.22;98354.94;6156937;22;96602;-74
2021/11/29 03:26:28;;;;;;;20.00;14.13;;;;;;;3.74;68.27;98360.13;6181713;22;97664;-74
2021/11/29 03:28:56;;;;;;;21.87;13.23;;;;;;;3.74;68.08;98364.47;6183484;22;97932;-74
2021/11/29 03:31:25;;;;;;;20.57;13.27;;;;;;;3.77;68.08;98361.75;6156536;22;96581;-73
2021/11/29 03:33:55;;;;;;;22.13;13.90;;;;;;;3.72;68.16;98363.66;6156734;22;96664;-74
2021/11/29 03:36:21;;;;;;;22.70;12.90;;;;;;;3.70;68.18;98362.91;6156037;22;100165;-74
2021/11/29 03:38:47;;;;;;;18.97;13.13;;;;;;;3.70;68.22;98368.09;6156132;22;97045;-73
2021/11/29 03:41:12;;;;;;;19.17;13.10;;;;;;;3.70;68.01;98358.56;6155966;22;96771;-74
2021/11/29 03:43:38;;;;;;;19.73;12.10;;;;;;;3.65;68.22;98357.03;6157439;22;96670;-74
2021/11/29 03:46:05;;;;;;;20.57;14.77;;;;;;;3.70;68.16;98355.97;6154536;22;98131;-74
2021/11/29 03:48:31;;;;;;;19.60;12.10;;;;;;;3.70;67.84;98352.53;6180687;22;97723;-74
2021/11/29 03:50:56;;;;;;;19.23;12.40;;;;;;;3.74;67.93;98351.50;6130328;22;96836;-74
2021/11/29 03:53:22;;;;;;;20.73;13.17;;;;;;;3.74;67.47;98356.69;6181877;22;96734;-74
2021/11/29 03:55:48;;;;;;;16.60;11.77;;;;;;;3.69;67.49;98356.00;6183031;22;97305;-74
2021/11/29 03:58:13;;;;;;;21.80;12.93;;;;;;;3.68;68.06;98357.75;6156226;22;99842;-74
2021/11/29 04:00:39;;;;;;;17.80;12.13;;;;;;;3.65;68.16;98350.09;6156358;22;96464;-74
2021/11/29 04:03:05;;;;;;;18.17;12.00;;;;;;;3.66;67.75;98356.97;6156175;22;97256;-74
2021/11/29 04:05:31;;;;;;;17.97;11.90;;;;;;;3.66;67.74;98351.75;6182209;22;97435;-74
2021/11/29 04:07:56;;;;;;;20.10;12.33;;;;;;;3.67;67.76;98345.69;6155869;22;97220;-74
2021/11/29 04:10:22;;;;;;;19.47;12.23;;;;;;;3.73;67.78;98349.81;6156978;22;96602;-74
2021/11/29 04:12:48;;;;;;;17.40;12.83;;;;;;;3.66;67.81;98343.97;6131906;22;96997;-74
2021/11/29 04:15:14;;;;;;;17.27;11.83;;;;;;;3.67;67.79;98344.84;6156690;22;97956;-74
2021/11/29 04:17:40;;;;;;;15.73;10.77;;;;;;;3.68;67.78;98347.38;6156555;22;97034;-73
2021/11/29 04:20:08;;;;;;;19.90;11.13;;;;;;;3.67;67.70;98345.69;6182058;22;98041;-74
2021/11/29 04:22:36;;;;;;;18.20;11.17;;;;;;;3.63;67.21;98341.50;6182330;22;96939;-74
2021/11/29 04:25:03;;;;;;;15.43;11.33;;;;;;;3.62;67.73;98347.59;6181490;22;97561;-74
2021/11/29 04:27:30;;;;;;;17.57;11.77;;;;;;;3.63;67.98;98344.09;6181521;22;97384;-74
2021/11/29 04:29:56;;;;;;;18.93;11.63;;;;;;;3.63;67.62;98351.88;6155752;22;97168;-74
2021/11/29 04:32:21;;;;;;;19.80;12.77;;;;;;;3.55;67.67;98349.59;6181750;22;96962;-74
2021/11/29 04:34:47;;;;;;;17.37;12.47;;;;;;;3.60;68.01;98354.59;6156710;22;100453;-73
2021/11/29 04:37:13;;;;;;;17.70;12.63;;;;;;;3.61;67.79;98364.09;6155982;22;98731;-74
2021/11/29 04:39:38;;;;;;;19.83;13.07;;;;;;;3.61;67.76;98351.13;6181809;22;96533;-74
2021/11/29 04:42:04;;;;;;;18.07;11.40;;;;;;;3.59;68.12;98351.16;6181389;22;96769;-74
2021/11/29 04:44:30;;;;;;;19.97;12.77;;;;;;;3.63;67.78;98351.88;6131733;22;100459;-73
2021/11/29 04:46:55;;;;;;;20.20;12.90;;;;;;;3.59;67.78;98351.16;6181072;22;97077;-74
2021/11/29 04:49:21;;;;;;;17.50;12.23;;;;;;;3.66;67.64;98353.53;6183662;22;96755;-74
2021/11/29 04:51:47;;;;;;;20.00;12.13;;;;;;;3.60;67.85;98355.44;6181591;22;97269;-74
2021/11/29 04:54:13;;;;;;;18.77;12.47;;;;;;;3.61;67.79;98358.91;6155715;22;97426;-73
2021/11/29 04:56:40;;;;;;;19.27;12.67;;;;;;;3.62;67.68;98360.59;6181311;22;97113;-73
2021/11/29 04:59:06;;;;;;;17.50;12.57;;;;;;;3.62;67.56;98357.97;6156725;22;96578;-74
2021/11/29 05:01:31;;;;;;;19.60;11.80;;;;;;;3.62;67.49;98352.78;6181269;22;97249;-74
2021/11/29 05:03:58;;;;;;;19.40;11.43;;;;;;;3.63;67.63;98346.69;6179942;22;97701;-74
2021/11/29 05:06:23;;;;;;;18.67;11.83;;;;;;;3.63;67.45;98357.06;6181313;22;99539;-74
2021/11/29 05:08:49;;;;;;;19.07;11.87;;;;;;;3.62;67.74;98356.22;6183807;22;96533;-73
2021/11/29 05:11:15;;;;;;;19.97;12.60;;;;;;;3.60;67.47;98355.44;6181111;22;97304;-74
2021/11/29 05:13:40;;;;;;;20.23;13.10;;;;;;;3.59;67.62;98358.09;6181155;22;100214;-74
2021/11/29 05:16:06;;;;;;;19.60;12.00;;;;;;;3.57;67.38;98350.34;6180891;22;97166;-73
2021/11/29 05:18:32;;;;;;;20.53;12.73;;;;;;;3.57;67.51;98367.69;6181201;22;96862;-73
2021/11/29 05:20:57;;;;;;;19.80;11.77;;;;;;;3.57;67.52;98365.09;6181207;22;97152;-74
2021/11/29 05:23:23;;;;;;;20.50;12.30;;;;;;;3.57;67.69;98360.72;6180897;22;96765;-74
2021/11/29 05:25:49;;;;;;;19.93;12.43;;;;;;;3.53;67.70;98368.72;6181367;22;97055;-74
2021/11/29 05:28:15;;;;;;;18.17;12.60;;;;;;;3.52;67.61;98374.78;6181039;22;96561;-74
2021/11/29 05:30:41;;;;;;;17.23;11.60;;;;;;;3.57;67.68;98378.06;6156531;22;97052;-73
2021/11/29 05:33:06;;;;;;;15.37;10.60;;;;;;;3.60;67.57;98381.38;6181642;22;97284;-74
2021/11/29 05:35:32;;;;;;;14.87;10.53;;;;;;;3.61;67.32;98382.25;6181702;22;97090;-74
2021/11/29 05:37:58;;;;;;;17.30;11.03;;;;;;;3.52;67.34;98379.97;6181108;22;96984;-74
2021/11/29 05:40:24;;;;;;;20.83;11.97;;;;;;;3.39;67.74;98388.19;6181590;22;96647;-74
2021/11/29 05:42:50;;;;;;;16.60;10.70;;;;;;;3.45;67.68;98386.28;6155521;22;100427;-74
2021/11/29 05:45:16;;;;;;;19.33;11.27;;;;;;;3.48;67.83;98386.19;6180344;22;96999;-74
2021/11/29 05:47:42;;;;;;;14.63;10.17;;;;;;;3.53;67.48;98397.25;6156184;22;96909;-74
2021/11/29 05:50:09;;;;;;;13.50;10.27;;;;;;;3.51;67.65;98392.09;6181720;22;96781;-73
2021/11/29 05:52:36;;;;;;;15.17;9.73;;;;;;;3.50;67.47;98402.53;6155853;22;97530;-73
2021/11/29 05:55:03;;;;;;;15.53;9.77;;;;;;;3.51;67.52;98399.88;6156625;22;97740;-73
2021/11/29 05:57:28;;;;;;;16.60;11.43;;;;;;;3.52;67.53;98406.78;6182848;22;97139;-73
2021/11/29 05:59:54;;;;;;;19.87;11.77;;;;;;;3.54;67.10;98404.13;6181879;22;96953;-73
2021/11/29 06:02:20;;;;;;;19.97;12.03;;;;;;;3.52;67.51;98414.56;6181455;22;97409;-73
2021/11/29 06:04:45;;;;;;;20.60;13.07;;;;;;;3.52;67.43;98424.94;6182423;22;100429;-72
2021/11/29 06:07:11;;;;;;;18.00;11.83;;;;;;;3.49;67.09;98421.59;6181781;22;96568;-74
2021/11/29 06:09:36;;;;;;;19.07;12.73;;;;;;;3.54;67.25;98428.31;6157142;22;96783;-74
2021/11/29 06:12:02;;;;;;;15.40;11.00;;;;;;;3.51;66.96;98428.41;6180642;22;97387;-73
2021/11/29 06:14:27;;;;;;;17.53;10.13;;;;;;;3.50;67.09;98426.72;6181072;22;98438;-73
2021/11/29 06:16:53;;;;;;;20.33;11.17;;;;;;;3.52;67.32;98440.50;6181918;22;96668;-74
2021/11/29 06:19:19;;;;;;;18.70;10.90;;;;;;;3.57;67.09;98445.50;6182213;22;96780;-73
2021/11/29 06:21:45;;;;;;;18.87;12.17;;;;;;;3.53;67.38;98447.38;6182140;22;99246;-73
2021/11/29 06:24:11;;;;;;;19.00;12.40;;;;;;;3.49;66.79;98456.19;6184814;22;97000;-74
2021/11/29 06:26:36;;;;;;;22.37;13.27;;;;;;;3.47;66.81;98455.38;6182931;22;96520;-74
2021/11/29 06:29:02;;;;;;;18.57;12.23;;;;;;;3.50;67.09;98460.47;6157722;22;96953;-75
2021/11/29 06:31:28;;;;;;;20.93;11.80;;;;;;;3.47;66.99;98459.72;6180660;22;97481;-74
2021/11/29 06:33:54;;;;;;;21.67;12.70;;;;;;;3.42;66.83;98449.50;6156930;22;97638;-74
2021/11/29 06:36:19;;;;;;;21.60;11.73;;;;;;;3.49;67.11;98468.28;6181844;22;96472;-74
2021/11/29 06:38:46;;;;;;;18.80;11.90;;;;;;;3.45;66.92;98464.13;6183008;22;96917;-74
2021/11/29 06:41:12;;;;;;;18.73;11.60;;;;;;;3.49;67.05;98463.97;6181173;22;97386;-74
2021/11/29 06:43:38;;;;;;;18.43;11.87;;;;;;;3.48;66.88;98470.03;6183384;22;96957;-73
2021/11/29 06:46:04;;;;;;;20.70;12.33;;;;;;;3.47;66.88;98476.13;6156474;22;96834;-74
2021/11/29 06:48:29;;;;;;;18.80;12.37;;;;;;;3.49;66.64;98476.94;6182487;22;96735;-73
2021/11/29 06:50:56;;;;;;;16.67;11.27;;;;;;;3.52;66.67;98474.25;6157577;22;100095;-73
2021/11/29 06:53:23;;;;;;;18.07;11.37;;;;;;;3.48;66.64;98479.56;6158042;22;97148;-73
2021/11/29 06:55:50;;;;;;;18.97;11.00;;;;;;;3.48;66.36;98474.38;6182945;22;96914;-73
2021/11/29 06:58:16;;;;;;;15.83;10.37;;;;;;;3.45;66.57;98479.69;6182326;22;97754;-73
2021/11/29 07:00:42;;;;;;;15.80;11.37;;;;;;;3.43;66.46;98482.31;6181286;22;98103;-73
2021/11/29 07:03:08;;;;;;;18.00;10.50;;;;;;;3.42;66.36;98483.22;6155141;22;98280;-74
2021/11/29 07:05:34;;;;;;;17.43;10.50;;;;;;;3.45;66.73;98490.91;6182410;22;96639;-74
2021/11/29 07:08:00;;;;;;;16.37;11.33;;;;;;;3.44;66.11;98498.75;6156892;22;97108;-74
2021/11/29 07:10:25;;;;;;;18.03;10.67;;;;;;;3.47;66.33;98503.81;6156876;22;99587;-74
2021/11/29 07:12:53;;;;;;;16.47;10.70;;;;;;;3.46;66.19;98509.91;6157316;22;98328;-74
2021/11/29 07:15:20;;;;;;;16.63;10.40;;;;;;;3.34;66.34;98513.75;6182504;22;96543;-74
2021/11/29 07:17:46;;;;;;;18.23;11.00;;;;;;;3.40;66.31;98513.53;6183905;22;96484;-74
2021/11/29 07:20:11;;;;;;;18.27;10.97;;;;;;;3.45;66.01;98518.59;6156170;22;100654;-74
2021/11/29 07:22:37;;;;;;;20.73;12.17;;;;;;;3.44;66.19;98514.31;6181945;22;97617;-74
2021/11/29 07:25:04;;;;;;;18.90;11.03;;;;;;;3.44;65.99;98511.72;6182802;22;96570;-74
2021/11/29 07:27:31;;;;;;;21.13;12.17;;;;;;;3.41;66.18;98512.66;6157485;22;96947;-74
2021/11/29 07:29:58;;;;;;;19.97;11.80;;;;;;;3.40;65.58;98509.22;6156102;22;97332;-74
2021/11/29 07:32:25;;;;;;;20.40;11.93;;;;;;;3.42;65.75;98514.34;6131606;22;99870;-74
2021/11/29 07:34:51;;;;;;;20.33;11.27;;;;;;;3.46;65.57;98518.56;6158430;22;97020;-74
2021/11/29 07:37:17;;;;;;;17.47;11.53;;;;;;;3.46;64.82;98521.16;6182104;22;96717;-74
2021/11/29 07:39:44;;;;;;;17.60;11.40;;;;;;;3.44;65.21;98522.09;6182390;22;97789;-74
2021/11/29 07:42:09;;;;;;;19.07;11.93;;;;;;;3.40;65.31;98519.59;6182680;22;97390;-74
2021/11/29 07:44:35;;;;;;;19.07;10.53;;;;;;;3.47;65.17;98529.78;6184485;22;96719;-74
2021/11/29 07:47:01;;;;;;;21.97;13.00;;;;;;;3.48;65.18;98536.63;6155377;22;97009;-74
2021/11/29 07:49:26;;;;;;;14.33;10.47;;;;;;;3.51;65.35;98537.38;6182096;22;98048;-73
2021/11/29 07:51:53;;;;;;;17.53;11.60;;;;;;;3.54;64.97;98545.06;6156514;22;100102;-74
2021/11/29 07:54:19;;;;;;;18.80;11.37;;;;;;;3.55;64.87;98541.59;6156848;22;96462;-67
2021/11/29 07:56:45;;;;;;;19.87;11.30;;;;;;;3.64;65.14;98553.41;6184177;22;96894;-74
2021/11/29 07:59:10;;;;;;;22.50;11.80;;;;;;;3.51;65.20;98549.50;6156321;22;100233;-74
2021/11/29 08:01:36;;;;;;;16.83;11.33;;;;;;;3.54;65.24;98552.00;6181884;22;99979;-74
2021/11/29 08:04:02;;;;;;;21.50;11.97;;;;;;;3.52;65.50;98558.97;6158220;22;96811;-74
2021/11/29 08:06:27;;;;;;;20.57;12.90;;;;;;;3.54;65.23;98559.78;6181848;22;96995;-74
2021/11/29 08:08:53;;;;;;;17.63;11.17;;;;;;;3.59;65.34;98576.91;6156971;22;100589;-75
2021/11/29 08:11:19;;;;;;;19.97;11.83;;;;;;;3.58;65.55;98564.00;6131199;22;100355;-74
2021/11/29 08:13:44;;;;;;;17.37;12.43;;;;;;;3.57;65.05;98575.25;6158763;22;96605;-74
2021/11/29 08:16:10;;;;;;;18.13;12.07;;;;;;;3.62;65.54;98578.53;6156965;22;97045;-74
2021/11/29 08:18:36;;;;;;;21.17;12.70;;;;;;;3.58;65.45;98567.44;6157453;22;97226;-75
2021/11/29 08:21:01;;;;;;;21.17;12.63;;;;;;;3.55;65.39;98575.31;6131495;22;99940;-74
2021/11/29 08:23:27;;;;;;;16.03;11.10;;;;;;;3.57;65.22;98578.69;6157181;22;97099;-74
2021/11/29 08:25:52;;;;;;;17.93;12.40;;;;;;;3.54;65.57;98578.78;6157754;22;96831;-74
2021/11/29 08:28:18;;;;;;;19.07;12.60;;;;;;;3.60;65.34;98586.38;6156035;22;97506;-75
2021/11/29 08:30:44;;;;;;;18.23;12.43;;;;;;;3.68;65.12;98583.53;6156995;22;97087;-75
2021/11/29 08:33:12;;;;;;;17.47;11.43;;;;;;;3.73;64.99;98583.38;6130026;22;98168;-76
2021/11/29 08:35:39;;;;;;;17.27;11.63;;;;;;;3.72;65.15;98587.69;6183492;22;97127;-76
2021/11/29 08:38:05;;;;;;;17.67;13.33;;;;;;;3.85;64.83;98582.97;6156655;22;97328;-75
2021/11/29 08:40:33;;;;;;;19.43;12.03;;;;;;;3.95;64.66;98593.88;6181226;22;97272;-76
2021/11/29 08:43:03;;;;;;;19.17;11.63;;;;;;;3.99;64.41;98588.53;6132688;22;96536;-75
2021/11/29 08:45:29;;;;;;;15.70;10.73;;;;;;;4.08;64.11;98590.78;6183262;22;96771;-76
2021/11/29 08:47:56;;;;;;;19.60;11.90;;;;;;;4.41;63.36;98587.88;6157595;22;97621;-75
2021/11/29 08:50:22;;;;;;;16.57;11.37;;;;;;;4.53;63.24;98594.38;6182749;22;97530;-73
2021/11/29 08:52:48;;;;;;;15.57;11.10;;;;;;;4.49;63.17;98590.22;6157756;22;96526;-73
2021/11/29 08:55:13;;;;;;;19.70;12.43;;;;;;;4.43;63.05;98593.88;6157369;22;96842;-73
2021/11/29 08:57:41;;;;;;;18.30;12.57;;;;;;;4.44;63.35;98597.31;6156127;22;97296;-74
2021/11/29 09:00:16;;;;;;;20.60;12.87;;;;;;;4.41;63.69;98600.88;6131723;22;99793;-76
2021/11/29 09:02:43;;;;;;;20.13;13.90;;;;;;;4.39;63.60;98617.41;6151586;22;97123;-74
2021/11/29 09:05:09;;;;;;;20.57;13.67;;;;;;;4.31;63.91;98609.91;6181983;22;96731;-73
2021/11/29 09:07:35;;;;;;;19.03;13.53;;;;;;;4.27;63.76;98611.75;6155723;22;100439;-74
2021/11/29 09:10:02;;;;;;;22.10;15.03;;;;;;;4.22;64.31;98613.69;6155278;22;99316;-73
2021/11/29 09:12:28;;;;;;;21.97;15.10;;;;;;;4.22;64.16;98610.25;6181897;22;96486;-74
2021/11/29 09:14:54;;;;;;;27.60;15.63;;;;;;;4.09;64.84;98612.41;6182313;22;96876;-73
2021/11/29 09:17:20;;;;;;;24.40;16.33;;;;;;;4.14;64.53;98618.31;6180398;22;100008;-72
2021/11/29 09:19:45;;;;;;;25.40;16.43;;;;;;;4.12;64.94;98614.91;6181237;22;100253;-73
2021/11/29 09:22:11;;;;;;;25.07;15.93;;;;;;;4.07;64.64;98602.09;6180795;22;96949;-73
2021/11/29 09:24:36;;;;;;;29.23;17.73;;;;;;;4.03;64.97;98610.88;6182399;22;97871;-74
2021/11/29 09:27:02;;;;;;;31.13;18.87;;;;;;;4.13;65.03;98619.22;6155830;22;97320;-74
2021/11/29 09:29:28;;;;;;;28.27;17.87;;;;;;;4.12;64.91;98617.50;6181687;22;97332;-75
2021/11/29 09:31:55;;;;;;;30.03;18.40;;;;;;;4.17;65.04;98613.00;6156726;22;96598;-74
2021/11/29 09:34:21;;;;;;;30.63;18.47;;;;;;;4.22;65.28;98620.63;6157221;22;96815;-75
2021/11/29 09:36:47;;;;;;;27.50;17.93;;;;;;;4.20;64.90;98610.28;6181903;22;97420;-75
2021/11/29 09:39:12;;;;;;;30.37;18.43;;;;;;;4.24;65.67;98606.66;6155349;22;100084;-75
2021/11/29 09:41:38;;;;;;;32.80;18.17;;;;;;;4.25;65.19;98618.78;6156483;22;96577;-76
2021/11/29 09:44:04;;;;;;;32.77;19.20;;;;;;;4.20;65.37;98605.09;6183605;22;97049;-74
2021/11/29 09:46:31;;;;;;;31.93;19.10;;;;;;;4.22;65.65;98613.69;6155685;22;100060;-75
2021/11/29 09:48:59;;;;;;;26.53;18.23;;;;;;;4.24;65.58;98605.81;6181048;22;97554;-75
2021/11/29 09:51:25;;;;;;;28.13;18.10;;;;;;;4.26;65.52;98611.81;6156139;22;97151;-76
2021/11/29 09:53:51;;;;;;;25.80;16.37;;;;;;;4.25;65.50;98600.59;6182721;22;96756;-76
2021/11/29 09:56:16;;;;;;;30.00;18.90;;;;;;;4.22;65.69;98605.06;6130364;22;100553;-75
2021/11/29 09:58:42;;;;;;;31.77;20.70;;;;;;;4.25;65.65;98608.38;6181826;22;97047;-76
2021/11/29 10:01:08;;;;;;;29.63;20.33;;;;;;;4.25;65.68;98610.97;6181067;22;96940;-76
2021/11/29 10:03:34;;;;;;;38.17;22.10;;;;;;;4.16;66.00;98611.31;6181504;22;96683;-76
2021/11/29 10:06:00;;;;;;;37.60;23.03;;;;;;;4.20;66.11;98610.28;6181684;22;97812;-76
2021/11/29 10:08:36;;;;;;;27.80;19.73;;;;;;;4.23;65.82;98612.78;6179106;22;97375;-76
2021/11/29 10:11:06;;;;;;;31.60;18.60;;;;;;;4.20;65.79;98612.88;6156572;22;96977;-76
2021/11/29 10:14:08;;;;;;;30.30;19.57;;;;;;;4.18;65.98;98612.09;6155883;22;96647;-76
2021/11/29 10:16:42;;;;;;;29.27;18.20;;;;;;;4.16;65.96;98616.50;6131606;22;99661;-76
2021/11/29 10:19:10;;;;;;;25.63;17.33;;;;;;;4.18;65.80;98606.88;6180858;22;97088;-75
2021/11/29 10:21:36;;;;;;;27.20;16.90;;;;;;;4.22;66.06;98605.91;6155628;22;96639;-75
2021/11/29 10:24:02;;;;;;;25.17;16.97;;;;;;;4.21;65.65;98603.34;6182355;22;97241;-75
2021/11/29 10:26:33;;;;;;;27.77;17.40;;;;;;;4.06;66.01;98609.91;6180096;22;97450;-75
2021/11/29 10:29:10;;;;;;;25.47;17.87;;;;;;;4.13;65.83;98613.16;6156321;22;100722;-75
2021/11/29 10:31:51;;;;;;;25.20;15.80;;;;;;;4.20;66.15;98612.88;6155977;22;96606;-75
2021/11/29 10:34:18;;;;;;;25.80;17.00;;;;;;;4.19;65.56;98608.59;6131157;22;96682;-75
2021/11/29 10:37:18;;;;;;;28.07;16.40;;;;;;;4.22;65.76;98615.44;6180285;22;100492;-75
2021/11/29 10:39:49;;;;;;;23.63;14.90;;;;;;;4.19;65.48;98610.31;6167137;22;97460;-75
2021/11/29 10:42:16;;;;;;;21.00;13.70;;;;;;;4.21;65.59;98613.72;6156482;22;96636;-75
2021/11/29 10:44:44;;;;;;;22.63;14.73;;;;;;;4.19;65.33;98619.00;6181251;22;96578;-75
2021/11/29 10:47:12;;;;;;;23.13;15.10;;;;;;;4.17;65.59;98614.75;6177554;22;97905;-74
2021/11/29 10:49:44;;;;;;;21.23;13.40;;;;;;;4.23;65.44;98615.38;6153590;22;99668;-75
2021/11/29 10:52:10;;;;;;;;;;;;;;;4.22;64.98;98620.63;6128754;22;97039;-75
2021/11/29 10:54:39;;;;;;;23.67;14.10;;;;;;;4.23;65.10;98617.13;6180468;22;97086;-75
2021/11/29 10:57:07;;;;;;;26.40;15.83;;;;;;;4.17;65.09;98613.00;6180489;22;98955;-75
2021/11/29 10:59:37;;;;;;;20.33;13.73;;;;;;;4.18;65.00;98611.25;6155161;22;100155;-75
2021/11/29 11:02:24;;;;;;;20.47;13.17;;;;;;;4.27;64.99;98614.34;6182081;22;97179;-75
2021/11/29 11:05:12;;;;;;;18.80;12.67;;;;;;;4.28;64.72;98613.47;6142894;22;96824;-76
2021/11/29 11:07:39;;;;;;;17.23;11.03;;;;;;;4.28;64.88;98617.81;6181814;22;97929;-75
2021/11/29 11:10:09;;;;;;;18.30;12.00;;;;;;;4.29;64.61;98625.53;6131778;22;99779;-76
2021/11/29 11:12:38;;;;;;;20.50;11.87;;;;;;;4.30;64.53;98624.66;6157304;22;96689;-76
2021/11/29 11:15:16;;;;;;;20.37;11.87;;;;;;;4.30;64.48;98613.41;6157542;22;97004;-76
2021/11/29 11:17:42;;;;;;;18.07;12.47;;;;;;;4.30;64.49;98626.38;6131182;22;99466;-76
2021/11/29 11:20:12;;;;;;;16.90;10.90;;;;;;;4.31;65.07;98628.09;6155850;22;97392;-75
2021/11/29 11:22:41;;;;;;;17.40;11.47;;;;;;;4.27;64.98;98624.75;6132646;22;96667;-76